Time;durP1;ratioP1;P1;durP2;ratioP2;P2;SDS_P1;SDS_P2;PMS_P1;PMS_P2;Temp;Humidity;BMP_temperature;BMP_pressure;BME280_temperature;BME280_humidity;BME280_pressure;Samples;Min_cycle;Max_cycle;Signal;HPM_P1;HPM_P2
2023/11/27 00:00:56;;;;;;;19.50;8.00;;;;;;;-2.67;74.16;98308.49;105739;1250;96582;-69
2023/11/27 00:03:31;;;;;;;22.00;7.80;;;;;;;-2.66;74.13;98304.63;105593;1261;96500;-68
2023/11/27 00:05:59;;;;;;;21.00;7.90;;;;;;;-2.65;74.18;98306.52;105767;1254;109803;-71
2023/11/27 00:08:27;;;;;;;20.20;8.10;;;;;;;-2.66;74.24;98308.10;105563;1254;97803;-69
2023/11/27 00:10:55;;;;;;;24.60;9.70;;;;;;;-2.67;74.25;98309.17;105728;1253;107576;-70
2023/11/27 00:13:26;;;;;;;21.10;8.60;;;;;;;-2.65;74.40;98309.98;105726;1254;96651;-67
2023/11/27 00:15:54;;;;;;;18.40;7.90;;;;;;;-2.65;74.28;98311.54;105734;1251;96596;-70
2023/11/27 00:18:22;;;;;;;20.80;7.40;;;;;;;-2.63;74.32;98313.04;105800;1251;110094;-71
2023/11/27 00:20:51;;;;;;;22.10;8.50;;;;;;;-2.62;74.45;98315.78;105778;1251;97579;-69
2023/11/27 00:23:19;;;;;;;19.20;7.10;;;;;;;-2.63;74.40;98315.98;105403;1257;107297;-74
2023/11/27 00:25:47;;;;;;;20.70;7.70;;;;;;;-2.63;74.33;98315.28;105956;1254;97788;-68
2023/11/27 00:28:15;;;;;;;22.30;7.40;;;;;;;-2.62;74.37;98313.36;105959;1253;96578;-69
2023/11/27 00:30:43;;;;;;;22.40;7.90;;;;;;;-2.63;74.40;98310.42;105725;1255;109694;-69
2023/11/27 00:33:10;;;;;;;21.20;7.50;;;;;;;-2.65;74.26;98309.27;105914;1253;96520;-69
2023/11/27 00:35:38;;;;;;;21.80;7.60;;;;;;;-2.65;74.37;98309.46;105711;1253;107282;-70
2023/11/27 00:38:07;;;;;;;18.90;6.90;;;;;;;-2.65;74.39;98313.79;105614;1256;96664;-71
2023/11/27 00:40:37;;;;;;;22.70;8.20;;;;;;;-2.64;74.28;98309.40;105625;1257;97934;-68
2023/11/27 00:43:05;;;;;;;20.40;7.20;;;;;;;-2.63;74.37;98311.64;105841;1254;109340;-69
2023/11/27 00:45:32;;;;;;;22.90;8.70;;;;;;;-2.62;74.33;98313.70;105569;1251;97422;-68
2023/11/27 00:48:00;;;;;;;21.50;7.30;;;;;;;-2.62;74.39;98314.20;105403;1257;107332;-68
2023/11/27 00:50:28;;;;;;;23.90;8.30;;;;;;;-2.62;74.32;98313.34;105746;1257;96596;-68
2023/11/27 00:52:56;;;;;;;20.80;8.30;;;;;;;-2.59;74.48;98312.38;105673;1254;96633;-68
2023/11/27 00:55:24;;;;;;;21.40;7.90;;;;;;;-2.59;74.36;98315.52;105808;1251;109997;-68
2023/11/27 00:57:52;;;;;;;21.80;8.00;;;;;;;-2.59;74.29;98323.68;105598;1253;97917;-69
2023/11/27 01:00:20;;;;;;;20.00;7.30;;;;;;;-2.58;74.48;98322.95;105559;1254;107708;-70
2023/11/27 01:02:52;;;;;;;19.90;7.60;;;;;;;-2.58;74.32;98323.29;105893;1257;96605;-70
2023/11/27 01:05:20;;;;;;;19.60;7.30;;;;;;;-2.58;74.32;98319.82;105762;1250;96603;-68
2023/11/27 01:07:48;;;;;;;19.60;7.70;;;;;;;-2.59;74.33;98321.59;105542;1254;109850;-68
2023/11/27 01:10:17;;;;;;;20.90;8.20;;;;;;;-2.60;74.20;98321.27;105420;1257;98049;-69
2023/11/27 01:12:45;;;;;;;23.30;8.70;;;;;;;-2.60;74.64;98312.06;105764;1266;107660;-69
2023/11/27 01:15:19;;;;;;;22.70;7.20;;;;;;;-2.58;74.40;98311.14;105515;1259;96673;-74
2023/11/27 01:17:47;;;;;;;22.20;7.70;;;;;;;-2.58;74.24;98306.98;105554;1256;96500;-69
2023/11/27 01:20:15;;;;;;;19.10;7.00;;;;;;;-2.59;74.23;98307.70;105511;1253;109597;-69
2023/11/27 01:22:44;;;;;;;18.30;6.70;;;;;;;-2.59;74.23;98310.47;105673;1270;96518;-68
2023/11/27 01:25:12;;;;;;;18.90;7.10;;;;;;;-2.60;74.33;98309.64;105734;1257;107563;-69
2023/11/27 01:27:40;;;;;;;18.30;6.60;;;;;;;-2.60;74.38;98303.22;105780;1254;96590;-69
2023/11/27 01:30:08;;;;;;;20.00;7.30;;;;;;;-2.59;74.36;98303.20;105768;1253;96588;-68
2023/11/27 01:32:37;;;;;;;20.90;6.80;;;;;;;-2.60;74.21;98301.29;105553;1254;109789;-71
2023/11/27 01:35:05;;;;;;;22.10;7.30;;;;;;;-2.61;74.32;98301.00;105471;1251;96622;-68
2023/11/27 01:37:33;;;;;;;21.60;7.20;;;;;;;-2.60;74.41;98301.13;105639;1263;107065;-68
2023/11/27 01:40:00;;;;;;;20.80;8.10;;;;;;;-2.59;74.25;98297.44;105557;1253;97216;-70
2023/11/27 01:42:28;;;;;;;19.40;7.90;;;;;;;-2.56;74.21;98298.92;105574;1250;97832;-68
2023/11/27 01:44:56;;;;;;;20.00;7.40;;;;;;;-2.52;74.37;98300.53;105875;1250;109909;-68
2023/11/27 01:47:25;;;;;;;19.70;7.40;;;;;;;-2.50;74.35;98295.98;105839;1251;96587;-68
2023/11/27 01:49:53;;;;;;;21.20;7.60;;;;;;;-2.50;74.30;98296.33;105556;1254;107726;-69
2023/11/27 01:52:21;;;;;;;20.00;7.60;;;;;;;-2.51;74.21;98293.40;105760;1254;97534;-69
2023/11/27 01:54:49;;;;;;;22.70;9.40;;;;;;;-2.50;74.33;98292.15;105551;1251;96573;-68
2023/11/27 01:57:20;;;;;;;21.30;8.00;;;;;;;-2.51;74.41;98288.70;105598;1251;109964;-68
2023/11/27 01:59:51;;;;;;;22.20;7.90;;;;;;;-2.50;74.34;98285.91;105483;1254;96648;-70
2023/11/27 02:02:19;;;;;;;21.80;8.40;;;;;;;-2.48;74.37;98288.11;105718;1254;107594;-73
2023/11/27 02:04:47;;;;;;;19.80;7.70;;;;;;;-2.47;74.29;98288.92;105769;1254;97404;-69
2023/11/27 02:07:16;;;;;;;22.50;9.20;;;;;;;-2.45;74.25;98289.88;105715;1251;96562;-69
2023/11/27 02:09:44;;;;;;;20.00;7.60;;;;;;;-2.43;74.29;98287.41;105678;1254;110689;-68
2023/11/27 02:12:12;;;;;;;18.70;7.80;;;;;;;-2.41;74.28;98281.96;105785;1253;96597;-68
2023/11/27 02:14:39;;;;;;;20.30;7.60;;;;;;;-2.40;74.21;98277.41;105694;1254;107122;-70
2023/11/27 02:17:08;;;;;;;21.50;7.00;;;;;;;-2.37;74.12;98277.50;105848;1251;96686;-69
2023/11/27 02:19:36;;;;;;;19.40;6.80;;;;;;;-2.36;74.18;98276.27;105736;1251;97178;-70
2023/11/27 02:22:04;;;;;;;17.70;6.70;;;;;;;-2.36;74.22;98269.48;105853;1254;109499;-69
2023/11/27 02:24:32;;;;;;;18.10;6.40;;;;;;;-2.35;74.25;98269.62;105716;1257;96629;-69
2023/11/27 02:27:00;;;;;;;16.00;6.30;;;;;;;-2.37;74.03;98269.35;105580;1254;107109;-68
2023/11/27 02:29:28;;;;;;;19.90;7.00;;;;;;;-2.39;74.04;98271.47;105798;1257;96598;-73
2023/11/27 02:31:57;;;;;;;21.20;6.90;;;;;;;-2.41;74.09;98267.36;105657;1251;96501;-69
2023/11/27 02:34:25;;;;;;;20.50;7.30;;;;;;;-2.47;73.99;98269.13;105567;1254;109725;-69
2023/11/27 02:36:53;;;;;;;21.50;7.30;;;;;;;-2.50;74.02;98261.41;105783;1251;96549;-69
2023/11/27 02:39:21;;;;;;;17.50;6.70;;;;;;;-2.51;74.01;98264.92;105819;1254;105858;-71
2023/11/27 02:41:49;;;;;;;16.70;6.10;;;;;;;-2.54;74.01;98257.20;105702;1254;96727;-69
2023/11/27 02:44:17;;;;;;;17.60;6.40;;;;;;;-2.56;74.01;98258.30;105606;1254;96667;-69
2023/11/27 02:46:45;;;;;;;19.50;6.50;;;;;;;-2.56;73.91;98251.02;105741;1250;109346;-68
2023/11/27 02:49:13;;;;;;;20.50;7.10;;;;;;;-2.57;74.04;98249.46;105830;1251;96609;-69
2023/11/27 02:51:41;;;;;;;16.80;6.60;;;;;;;-2.59;73.96;98249.03;105581;1251;107739;-70
2023/11/27 02:54:10;;;;;;;17.40;6.20;;;;;;;-2.59;74.03;98243.64;105824;1254;97930;-69
2023/11/27 02:56:38;;;;;;;16.40;5.70;;;;;;;-2.60;73.92;98252.17;105818;1254;97976;-70
2023/11/27 02:59:05;;;;;;;17.60;7.20;;;;;;;-2.59;74.02;98245.73;105558;1255;109886;-68
2023/11/27 03:01:33;;;;;;;18.00;6.70;;;;;;;-2.60;73.98;98242.80;105887;1253;96507;-70
2023/11/27 03:04:01;;;;;;;19.40;6.80;;;;;;;-2.60;73.93;98246.79;105795;1254;107653;-68
2023/11/27 03:06:29;;;;;;;18.10;8.00;;;;;;;-2.59;73.92;98245.73;105610;1257;97909;-69
2023/11/27 03:08:58;;;;;;;16.30;6.00;;;;;;;-2.59;73.88;98247.27;105705;1254;96670;-68
2023/11/27 03:11:26;;;;;;;15.90;6.30;;;;;;;-2.59;74.07;98239.13;105667;1251;109723;-69
2023/11/27 03:13:53;;;;;;;16.30;5.90;;;;;;;-2.58;73.94;98242.21;105459;1254;96607;-69
2023/11/27 03:16:21;;;;;;;18.20;7.50;;;;;;;-2.59;73.74;98239.30;105738;1253;107221;-70
2023/11/27 03:18:49;;;;;;;17.10;6.90;;;;;;;-2.59;73.80;98235.65;105291;1257;98019;-68
2023/11/27 03:21:21;;;;;;;15.40;6.20;;;;;;;-2.58;73.72;98233.54;105796;1253;96574;-69
2023/11/27 03:23:49;;;;;;;18.70;6.80;;;;;;;-2.55;73.77;98233.80;105693;1256;109820;-71
2023/11/27 03:26:18;;;;;;;17.30;7.20;;;;;;;-2.56;73.62;98233.83;105730;1257;96506;-69
2023/11/27 03:28:46;;;;;;;16.90;6.20;;;;;;;-2.57;73.70;98236.98;105532;1254;107551;-69
2023/11/27 03:31:14;;;;;;;14.50;6.10;;;;;;;-2.58;73.71;98236.13;105421;1256;96667;-68
2023/11/27 03:33:42;;;;;;;16.70;7.70;;;;;;;-2.59;73.66;98233.73;105811;1254;96571;-71
2023/11/27 03:36:10;;;;;;;16.00;6.40;;;;;;;-2.58;73.67;98238.23;105718;1250;108750;-68
2023/11/27 03:38:38;;;;;;;16.00;7.20;;;;;;;-2.60;73.57;98238.81;105968;1254;96718;-70
2023/11/27 03:41:08;;;;;;;17.20;6.70;;;;;;;-2.62;73.44;98234.02;105643;1256;107608;-68
2023/11/27 03:43:36;;;;;;;17.00;7.00;;;;;;;-2.61;73.58;98230.52;105972;1251;97032;-69
2023/11/27 03:46:04;;;;;;;23.70;9.50;;;;;;;-2.60;73.57;98228.73;105735;1250;97577;-69
2023/11/27 03:48:31;;;;;;;24.90;10.40;;;;;;;-2.61;73.40;98223.77;105924;1251;110018;-68
2023/11/27 03:50:59;;;;;;;25.10;10.00;;;;;;;-2.61;73.50;98222.02;105908;1254;96597;-72
2023/11/27 03:53:27;;;;;;;24.50;11.90;;;;;;;-2.60;73.64;98225.43;105535;1251;108393;-70
2023/11/27 03:55:55;;;;;;;22.20;9.60;;;;;;;-2.58;73.42;98226.96;105883;1253;96600;-68
2023/11/27 03:58:23;;;;;;;22.50;8.80;;;;;;;-2.58;73.56;98226.93;105535;1251;96612;-71
2023/11/27 04:00:51;;;;;;;17.80;7.80;;;;;;;-2.57;73.39;98229.69;105540;1251;109863;-68
2023/11/27 04:03:19;;;;;;;21.40;8.20;;;;;;;-2.57;73.60;98230.20;105818;1250;97544;-68
2023/11/27 04:05:47;;;;;;;20.90;8.50;;;;;;;-2.56;73.35;98230.52;105541;1250;107945;-69
2023/11/27 04:08:15;;;;;;;21.50;9.10;;;;;;;-2.55;73.49;98233.98;105861;1254;96609;-69
2023/11/27 04:10:43;;;;;;;20.80;8.30;;;;;;;-2.55;73.44;98233.45;105646;1249;98005;-71
2023/11/27 04:13:11;;;;;;;20.80;9.30;;;;;;;-2.55;73.47;98231.88;105698;1250;110122;-70
2023/11/27 04:15:39;;;;;;;20.70;8.60;;;;;;;-2.54;73.47;98229.27;105751;1250;96606;-69
2023/11/27 04:18:06;;;;;;;24.50;9.50;;;;;;;-2.54;73.44;98225.61;105479;1254;107676;-69
2023/11/27 04:20:34;;;;;;;23.90;8.10;;;;;;;-2.53;73.46;98226.45;105752;1254;97832;-70
2023/11/27 04:23:02;;;;;;;20.40;7.60;;;;;;;-2.54;73.32;98225.07;105622;1252;97914;-70
2023/11/27 04:25:30;;;;;;;20.00;8.30;;;;;;;-2.53;73.37;98224.52;105823;1254;110078;-69
2023/11/27 04:27:58;;;;;;;21.50;7.90;;;;;;;-2.52;73.40;98225.02;105936;1253;96500;-71
2023/11/27 04:30:27;;;;;;;20.60;7.70;;;;;;;-2.50;73.38;98226.52;105487;1256;107561;-69
2023/11/27 04:32:55;;;;;;;19.00;7.80;;;;;;;-2.49;73.42;98218.86;105718;1254;97420;-69
2023/11/27 04:35:23;;;;;;;23.30;8.60;;;;;;;-2.48;73.43;98217.09;105862;1254;96596;-69
2023/11/27 04:37:51;;;;;;;21.90;8.00;;;;;;;-2.48;73.34;98213.80;106387;1258;109345;-69
2023/11/27 04:40:20;;;;;;;23.00;9.30;;;;;;;-2.47;73.28;98207.70;105415;1272;96572;-69
2023/11/27 04:42:48;;;;;;;23.70;9.90;;;;;;;-2.49;73.35;98208.08;105689;1251;107675;-70
2023/11/27 04:45:18;;;;;;;30.30;12.80;;;;;;;-2.50;73.25;98209.16;105820;1251;96682;-68
2023/11/27 04:47:46;;;;;;;20.40;8.70;;;;;;;-2.47;73.28;98205.25;105816;1254;97515;-69
2023/11/27 04:50:14;;;;;;;19.90;8.60;;;;;;;-2.45;73.24;98207.27;105502;1254;109549;-69
2023/11/27 04:52:42;;;;;;;21.30;8.10;;;;;;;-2.46;73.06;98207.48;105722;1254;96511;-68
2023/11/27 04:55:10;;;;;;;22.00;10.00;;;;;;;-2.46;73.28;98208.17;105845;1257;107624;-70
2023/11/27 04:57:38;;;;;;;29.30;13.90;;;;;;;-2.46;73.28;98209.54;106216;1257;96583;-73
2023/11/27 05:00:08;;;;;;;28.00;15.90;;;;;;;-2.46;73.12;98210.43;105896;1254;97542;-73
2023/11/27 05:02:37;;;;;;;28.50;13.10;;;;;;;-2.47;73.30;98209.25;105839;1256;109505;-70
2023/11/27 05:05:25;;;;;;;21.70;9.00;;;;;;;-2.44;73.05;98208.92;105553;1251;97894;-71
2023/11/27 05:07:54;;;;;;;17.10;7.10;;;;;;;-2.44;73.24;98207.03;105508;1270;107835;-70
2023/11/27 05:10:22;;;;;;;19.20;6.80;;;;;;;-2.44;73.13;98207.74;105780;1256;96672;-70
2023/11/27 05:12:50;;;;;;;15.30;6.30;;;;;;;-2.45;73.15;98208.83;105775;1254;96590;-69
2023/11/27 05:15:18;;;;;;;18.50;7.20;;;;;;;-2.48;73.11;98212.55;105730;1250;109778;-68
2023/11/27 05:17:47;;;;;;;18.90;7.30;;;;;;;-2.47;73.31;98211.84;105847;1254;96606;-68
2023/11/27 05:20:15;;;;;;;20.10;8.00;;;;;;;-2.47;73.17;98213.39;105900;1254;107465;-72
2023/11/27 05:22:43;;;;;;;17.60;7.40;;;;;;;-2.47;73.10;98217.91;105865;1254;96581;-75
2023/11/27 05:25:11;;;;;;;17.00;7.30;;;;;;;-2.46;73.04;98216.15;107695;1250;96574;-80
2023/11/27 05:27:39;;;;;;;19.00;7.40;;;;;;;-2.45;73.08;98221.31;105943;1251;110371;-74
2023/11/27 05:30:07;;;;;;;21.20;7.50;;;;;;;-2.43;73.12;98225.58;105825;1254;96507;-74
2023/11/27 05:32:36;;;;;;;22.90;9.00;;;;;;;-2.43;73.15;98229.23;107897;1254;107583;-73
2023/11/27 05:35:07;;;;;;;32.20;10.80;;;;;;;-2.43;73.02;98235.64;108095;1250;96622;-77
2023/11/27 05:37:35;;;;;;;25.00;9.30;;;;;;;-2.43;73.00;98238.25;106123;1254;97886;-77
2023/11/27 05:40:07;;;;;;;23.10;8.00;;;;;;;-2.43;72.94;98242.61;106029;1253;109499;-75
2023/11/27 05:42:39;;;;;;;21.60;7.60;;;;;;;-2.43;73.01;98246.60;108424;1251;96609;-73
2023/11/27 05:45:11;;;;;;;21.80;7.60;;;;;;;-2.44;73.01;98248.71;108757;1251;107251;-74
2023/11/27 05:47:43;;;;;;;21.90;8.10;;;;;;;-2.42;73.04;98243.44;105500;1254;96577;-74
2023/11/27 05:50:22;;;;;;;19.60;7.80;;;;;;;-2.41;72.92;98247.38;105734;1254;96661;-75
2023/11/27 05:52:53;;;;;;;22.60;7.80;;;;;;;-2.40;72.97;98248.42;105489;1254;109502;-75
2023/11/27 05:55:25;;;;;;;19.80;7.40;;;;;;;-2.39;72.95;98250.30;105569;1254;96592;-80
2023/11/27 05:58:12;;;;;;;21.00;8.20;;;;;;;-2.35;73.13;98250.48;105728;1258;108866;-80
2023/11/27 06:00:56;;;;;;;20.70;7.40;;;;;;;-2.33;72.67;98245.94;105331;1259;97405;-80
2023/11/27 06:13:28;;;;;;;;;;;;;;;;;;;;;
2023/11/27 07:01:42;;;;;;;;;;;;;;;;;;;;;
2023/11/27 07:23:41;;;;;;;;;;;;;;;;;;;;;
2023/11/27 07:40:07;;;;;;;32.60;15.30;;;;;;;-2.33;72.52;98264.51;105812;1282;107212;-81
2023/11/27 07:43:58;;;;;;;67.30;30.00;;;;;;;-2.30;72.39;98265.10;105299;1288;94731;-81
2023/11/27 07:52:16;;;;;;;;;;;;;;;;;;;;;
2023/11/27 08:50:13;;;;;;;;;;;;;;;;;;;;;
2023/11/27 09:14:56;;;;;;;;;;;;;;;;;;;;;
2023/11/27 09:40:37;;;;;;;;;;;;;;;;;;;;;
2023/11/27 12:35:26;;;;;;;;;;;;;;;;;;;;;
2023/11/27 14:51:11;;;;;;;36.40;16.30;;;;;;;-0.48;69.58;98088.79;106537;1265;95189;-81
2023/11/27 14:59:23;;;;;;;32.50;15.80;;;;;;;-0.59;69.38;98092.04;105692;1267;95292;-79
2023/11/27 15:02:31;;;;;;;37.00;20.10;;;;;;;-0.72;69.43;98087.39;105979;1257;95418;-76
2023/11/27 15:04:58;;;;;;;41.80;24.80;;;;;;;-0.79;69.67;98088.54;106536;1260;95312;-76
2023/11/27 15:07:27;;;;;;;57.70;36.00;;;;;;;-0.85;69.45;98090.02;108111;1250;95605;-76
2023/11/27 15:09:55;;;;;;;69.60;44.10;;;;;;;-0.92;69.40;98091.17;107834;1251;107468;-75
2023/11/27 15:12:24;;;;;;;114.80;70.40;;;;;;;-0.99;69.40;98093.55;107792;1245;95191;-75
2023/11/27 15:14:51;;;;;;;149.30;86.60;;;;;;;-1.07;69.39;98093.72;107845;1244;95401;-75
2023/11/27 15:17:21;;;;;;;136.30;78.80;;;;;;;-1.16;69.25;98095.62;107618;1243;95333;-75
2023/11/27 15:19:47;;;;;;;99.40;60.40;;;;;;;-1.24;69.38;98094.20;107976;1237;95519;-76
2023/11/27 15:22:18;;;;;;;71.50;41.70;;;;;;;-1.31;69.25;98093.95;107834;1247;95380;-76
2023/11/27 15:24:49;;;;;;;67.20;34.00;;;;;;;-1.42;69.20;98092.15;107879;1249;95497;-76
2023/11/27 15:27:16;;;;;;;63.90;33.10;;;;;;;-1.51;69.30;98089.70;107956;1244;95321;-76
2023/11/27 15:29:43;;;;;;;64.10;34.50;;;;;;;-1.57;69.40;98083.14;107599;1243;95423;-76
2023/11/27 15:32:15;;;;;;;62.40;34.30;;;;;;;-1.61;69.27;98082.27;107620;1243;95332;-76
2023/11/27 15:34:41;;;;;;;60.50;31.80;;;;;;;-1.71;69.15;98068.39;107750;1244;107466;-75
2023/11/27 15:37:08;;;;;;;51.10;28.30;;;;;;;-1.79;69.12;98067.65;107909;1251;96318;-75
2023/11/27 15:39:35;;;;;;;52.30;28.30;;;;;;;-1.81;69.36;98063.73;108209;1241;95229;-76
2023/11/27 15:42:07;;;;;;;48.40;25.80;;;;;;;-1.83;69.55;98059.83;108481;1237;95244;-76
2023/11/27 15:44:54;;;;;;;49.80;25.50;;;;;;;-1.85;69.17;98055.91;102397;1289;635466;-75
2023/11/27 15:47:26;;;;;;;55.90;26.90;;;;;;;-1.90;69.00;98053.30;105246;1263;94290;-75
2023/11/27 15:49:54;;;;;;;65.00;28.70;;;;;;;-1.92;69.34;98051.64;105220;1261;94194;-75
2023/11/27 15:52:24;;;;;;;73.40;35.20;;;;;;;-1.94;69.35;98051.20;105170;1262;107057;-75
2023/11/27 15:54:52;;;;;;;66.20;30.50;;;;;;;-1.96;69.32;98051.46;105116;1262;95239;-76
2023/11/27 15:57:23;;;;;;;62.70;29.20;;;;;;;-1.99;69.02;98048.43;104951;1254;192111;-78
2023/11/27 15:59:51;;;;;;;58.30;29.80;;;;;;;-2.03;68.90;98042.66;105426;1254;94398;-76
2023/11/27 16:02:22;;;;;;;58.50;28.80;;;;;;;-2.04;69.44;98041.34;105282;1254;95304;-77
2023/11/27 16:04:53;;;;;;;70.20;33.50;;;;;;;-2.05;69.29;98038.27;105511;1254;106969;-78
2023/11/27 16:07:21;;;;;;;63.20;35.90;;;;;;;-2.06;69.10;98033.43;105579;1255;95253;-77
2023/11/27 16:10:16;;;;;;;56.30;32.90;;;;;;;-2.06;69.12;98030.61;102160;1292;636592;-77
2023/11/27 16:12:46;;;;;;;50.20;30.00;;;;;;;-2.11;69.21;98031.16;104979;1264;94369;-75
2023/11/27 16:15:15;;;;;;;54.20;29.60;;;;;;;-2.13;68.88;98031.77;105195;1259;94284;-74
2023/11/27 16:18:23;;;;;;;;;;;;;;;;;;;;;
2023/11/27 16:25:46;;;;;;;63.50;31.90;;;;;;;-2.37;69.21;98022.42;98189;1255;108168;-76
2023/11/27 16:28:14;;;;;;;69.30;34.60;;;;;;;-2.38;68.94;98022.77;105393;1258;107922;-76
2023/11/27 16:30:42;;;;;;;72.10;37.00;;;;;;;-2.40;68.89;98019.02;105501;1262;96066;-76
2023/11/27 16:33:11;;;;;;;84.10;43.80;;;;;;;-2.42;69.02;98018.77;105280;1260;107759;-78
2023/11/27 16:35:40;;;;;;;91.00;45.10;;;;;;;-2.42;69.01;98017.89;105549;1260;94297;-79
2023/11/27 16:38:09;;;;;;;85.30;44.40;;;;;;;-2.44;69.06;98014.15;105581;1260;95027;-76
2023/11/27 16:40:37;;;;;;;71.20;36.70;;;;;;;-2.49;68.88;98011.38;105524;1258;107852;-80
2023/11/27 16:43:06;;;;;;;75.20;39.80;;;;;;;-2.52;69.08;98008.89;105253;1260;95213;-79
2023/11/27 16:45:33;;;;;;;70.50;38.00;;;;;;;-2.58;69.09;98003.88;105064;1260;107605;-79
2023/11/27 16:48:03;;;;;;;66.90;35.50;;;;;;;-2.59;68.95;98004.60;105007;1261;96173;-79
2023/11/27 16:50:34;;;;;;;65.40;33.90;;;;;;;-2.59;69.20;98002.71;105223;1258;95258;-78
2023/11/27 16:53:03;;;;;;;67.60;34.10;;;;;;;-2.62;68.85;98002.82;105330;1260;106286;-78
2023/11/27 16:55:31;;;;;;;60.50;31.30;;;;;;;-2.68;68.62;98003.23;105570;1261;95223;-78
2023/11/27 16:57:59;;;;;;;58.90;30.20;;;;;;;-2.70;68.78;98003.27;107404;1258;107259;-78
2023/11/27 17:00:35;;;;;;;65.10;33.80;;;;;;;-2.72;69.07;98001.27;105514;1257;95294;-77
2023/11/27 17:03:06;;;;;;;60.70;32.80;;;;;;;-2.75;68.94;98002.23;105129;1260;95309;-77
2023/11/27 17:05:37;;;;;;;71.20;35.60;;;;;;;-2.79;69.03;98005.15;105347;1261;107002;-78
2023/11/27 17:08:09;;;;;;;91.30;45.00;;;;;;;-2.81;68.94;98006.44;105754;1260;95168;-77
2023/11/27 17:10:41;;;;;;;77.00;38.80;;;;;;;-2.78;69.05;98011.73;105436;1257;107201;-77
2023/11/27 17:13:10;;;;;;;74.70;42.90;;;;;;;-2.83;69.11;98016.91;105224;1270;95702;-79
2023/11/27 17:15:41;;;;;;;72.20;41.40;;;;;;;-2.88;68.76;98015.02;105202;1261;95255;-78
2023/11/27 17:18:10;;;;;;;64.20;35.90;;;;;;;-2.95;68.75;98015.77;105568;1260;108602;-78
2023/11/27 17:20:39;;;;;;;56.70;29.70;;;;;;;-2.95;69.27;98014.91;105535;1274;96714;-81
2023/11/27 17:23:08;;;;;;;66.70;33.30;;;;;;;-2.97;68.87;98011.16;105286;1260;106650;-78
2023/11/27 17:25:40;;;;;;;91.60;42.50;;;;;;;-3.02;68.86;98010.09;107370;1257;95353;-79
2023/11/27 17:28:11;;;;;;;100.80;49.90;;;;;;;-3.05;68.77;98006.74;104980;1263;95246;-79
2023/11/27 17:30:45;;;;;;;91.20;43.70;;;;;;;-3.07;68.80;98009.27;108062;1257;108590;-77
2023/11/27 17:33:13;;;;;;;109.00;52.50;;;;;;;-3.05;68.89;98009.54;105361;1269;95900;-78
2023/11/27 17:35:42;;;;;;;91.30;45.30;;;;;;;-3.06;68.92;98006.61;105328;1271;107144;-80
2023/11/27 17:38:11;;;;;;;96.90;49.60;;;;;;;-3.05;68.73;98008.47;105479;1260;95244;-79
2023/11/27 17:40:39;;;;;;;94.60;45.30;;;;;;;-3.09;68.86;98008.80;105982;1260;95236;-78
2023/11/27 17:43:10;;;;;;;92.90;48.00;;;;;;;-3.16;68.78;98008.14;105143;1257;109241;-76
2023/11/27 17:45:41;;;;;;;91.00;43.70;;;;;;;-3.12;69.05;98006.84;105162;1260;95813;-76
2023/11/27 17:48:10;;;;;;;72.60;36.50;;;;;;;-3.09;68.91;98009.34;107115;1257;105977;-77
2023/11/27 17:50:38;;;;;;;65.60;32.80;;;;;;;-3.09;69.06;98004.30;105158;1258;95260;-76
2023/11/27 17:53:07;;;;;;;64.20;31.80;;;;;;;-3.07;68.90;98003.72;105757;1260;95237;-77
2023/11/27 17:55:37;;;;;;;62.60;30.40;;;;;;;-3.09;69.11;98003.77;105449;1257;108569;-78
2023/11/27 17:58:15;;;;;;;62.20;30.90;;;;;;;-3.14;69.20;97995.27;104885;1261;95514;-78
2023/11/27 18:00:46;;;;;;;76.40;37.20;;;;;;;-3.13;68.94;97998.86;104963;1260;107414;-77
2023/11/27 18:03:16;;;;;;;72.40;34.70;;;;;;;-3.17;69.03;97998.48;105221;1260;95343;-77
2023/11/27 18:05:45;;;;;;;80.00;40.70;;;;;;;-3.19;69.02;97999.59;105120;1257;95267;-76
2023/11/27 18:08:13;;;;;;;77.20;39.10;;;;;;;-3.19;69.06;97998.20;105096;1260;109331;-75
2023/11/27 18:10:41;;;;;;;63.30;31.10;;;;;;;-3.18;69.23;97989.33;105747;1260;95515;-77
2023/11/27 18:13:10;;;;;;;58.20;28.50;;;;;;;-3.17;69.14;97987.38;104982;1272;107647;-77
2023/11/27 18:15:38;;;;;;;59.90;28.90;;;;;;;-3.16;69.09;97989.98;106032;1258;95263;-77
2023/11/27 18:18:06;;;;;;;69.90;33.50;;;;;;;-3.17;69.40;97987.40;106147;1260;95148;-76
2023/11/27 18:20:34;;;;;;;73.60;35.60;;;;;;;-3.18;69.38;97994.55;105396;1264;108008;-76
2023/11/27 18:23:02;;;;;;;70.70;34.40;;;;;;;-3.22;69.25;97995.89;105461;1257;95484;-76
2023/11/27 18:25:29;;;;;;;73.20;34.00;;;;;;;-3.27;69.47;98000.91;105390;1257;107744;-77
2023/11/27 18:27:57;;;;;;;65.60;31.60;;;;;;;-3.30;69.30;97998.08;104843;1261;95373;-77
2023/11/27 18:30:25;;;;;;;69.10;31.80;;;;;;;-3.30;69.46;97996.67;105053;1257;95175;-77
2023/11/27 18:32:55;;;;;;;62.30;29.10;;;;;;;-3.30;69.52;97993.04;106958;1257;108612;-77
2023/11/27 18:35:23;;;;;;;64.00;31.50;;;;;;;-3.29;69.55;97995.27;104998;1271;95773;-77
2023/11/27 18:37:50;;;;;;;60.20;30.10;;;;;;;-3.26;69.38;97993.09;104816;1256;106787;-77
2023/11/27 18:40:18;;;;;;;61.40;28.70;;;;;;;-3.25;69.71;97986.96;105204;1272;95274;-78
2023/11/27 18:42:48;;;;;;;61.90;29.10;;;;;;;-3.23;69.60;97982.73;105621;1256;95207;-78
2023/11/27 18:45:22;;;;;;;56.80;27.70;;;;;;;-3.21;69.66;97976.42;105463;1261;108571;-78
2023/11/27 18:47:51;;;;;;;68.00;31.10;;;;;;;-3.16;69.47;97977.46;105679;1256;95510;-76
2023/11/27 18:50:19;;;;;;;65.50;30.40;;;;;;;-3.11;69.58;97978.70;106311;1258;108070;-76
2023/11/27 18:52:48;;;;;;;73.90;29.90;;;;;;;-3.05;69.89;97977.10;105046;1256;95331;-76
2023/11/27 18:55:16;;;;;;;71.30;30.50;;;;;;;-3.01;69.75;97971.91;108308;1257;93011;-77
2023/11/27 18:57:44;;;;;;;75.10;30.70;;;;;;;-2.97;69.85;97968.15;108306;1256;108190;-77
2023/11/27 19:00:17;;;;;;;78.40;32.40;;;;;;;-2.91;69.43;97962.56;108257;1256;96012;-77
2023/11/27 19:02:45;;;;;;;80.90;33.70;;;;;;;-2.88;69.78;97956.04;108313;1256;107771;-77
2023/11/27 19:05:13;;;;;;;70.10;31.30;;;;;;;-2.84;69.58;97955.70;108263;1256;93210;-73
2023/11/27 19:07:41;;;;;;;85.50;33.40;;;;;;;-2.79;69.92;97952.59;107407;1260;95136;-72
2023/11/27 19:10:10;;;;;;;76.90;31.20;;;;;;;-2.76;69.86;97947.78;104477;1257;108783;-75
2023/11/27 19:12:39;;;;;;;63.90;27.00;;;;;;;-2.71;69.78;97947.25;104571;1257;95413;-76
2023/11/27 19:15:08;;;;;;;82.80;31.70;;;;;;;-2.64;69.63;97942.85;104456;1270;106884;-76
2023/11/27 19:17:36;;;;;;;83.50;34.50;;;;;;;-2.60;69.63;97937.66;105146;1257;95174;-76
2023/11/27 19:20:10;;;;;;;90.90;36.80;;;;;;;-2.59;69.62;97937.96;104920;1257;95174;-77
2023/11/27 19:22:38;;;;;;;82.00;36.50;;;;;;;-2.60;69.71;97930.88;105289;1257;108330;-76
2023/11/27 19:25:10;;;;;;;75.80;32.00;;;;;;;-2.59;69.83;97925.81;105042;1262;95248;-75
2023/11/27 19:27:39;;;;;;;81.70;34.60;;;;;;;-2.58;69.65;97916.05;104937;1258;109059;-75
2023/11/27 19:30:10;;;;;;;72.70;30.90;;;;;;;-2.63;69.54;97914.67;105086;1261;95376;-76
2023/11/27 19:32:39;;;;;;;72.40;30.80;;;;;;;-2.67;69.31;97912.74;104907;1261;95203;-75
2023/11/27 19:35:09;;;;;;;81.80;31.70;;;;;;;-2.65;69.56;97908.88;105186;1257;108530;-76
2023/11/27 19:37:38;;;;;;;74.20;30.70;;;;;;;-2.66;69.58;97901.45;106051;1258;96191;-73
2023/11/27 19:40:07;;;;;;;72.50;30.70;;;;;;;-2.71;69.45;97902.48;105434;1257;107791;-73
2023/11/27 19:42:35;;;;;;;73.00;31.30;;;;;;;-2.74;69.33;97900.33;104439;1260;95371;-73
2023/11/27 19:45:05;;;;;;;75.60;32.80;;;;;;;-2.76;69.30;97899.52;107868;1257;94282;-74
2023/11/27 19:47:33;;;;;;;72.30;32.00;;;;;;;-2.83;69.36;97892.52;105423;1260;109129;-74
2023/11/27 19:50:03;;;;;;;73.70;32.90;;;;;;;-2.85;69.42;97889.98;106189;1258;96250;-74
2023/11/27 19:52:31;;;;;;;69.10;29.90;;;;;;;-2.88;69.46;97885.40;105260;1257;107269;-74
2023/11/27 19:55:00;;;;;;;65.10;28.70;;;;;;;-2.93;69.49;97885.63;105393;1257;95926;-74
2023/11/27 19:57:28;;;;;;;73.10;35.40;;;;;;;-2.92;69.53;97881.60;105156;1260;95240;-74
2023/11/27 19:59:56;;;;;;;75.20;32.30;;;;;;;-2.91;69.82;97877.72;105303;1255;106639;-74
2023/11/27 20:02:24;;;;;;;73.50;33.10;;;;;;;-2.96;69.54;97876.52;104658;1260;95275;-74
2023/11/27 20:04:53;;;;;;;55.40;24.80;;;;;;;-3.00;69.51;97869.88;106464;1260;108041;-73